createdAt,value
2023-05-15T00:01:51.180Z,36.30
2023-05-15T00:04:17.872Z,36.92
2023-05-15T00:06:44.636Z,37.47
2023-05-15T00:09:11.316Z,36.83
2023-05-15T00:11:37.958Z,37.05
2023-05-15T00:14:04.667Z,35.20
2023-05-15T00:16:31.354Z,33.92
2023-05-15T00:18:58.384Z,35.13
2023-05-15T00:21:25.088Z,33.78
2023-05-15T00:23:53.886Z,33.08
2023-05-15T00:26:23.145Z,34.72
2023-05-15T00:28:50.679Z,33.70
2023-05-15T00:31:17.408Z,34.97
2023-05-15T00:33:44.238Z,35.78
2023-05-15T00:36:11.077Z,36.88
2023-05-15T00:38:37.777Z,34.20
2023-05-15T00:41:06.907Z,34.28
2023-05-15T00:43:34.747Z,35.38
2023-05-15T00:46:02.185Z,34.90
2023-05-15T00:48:29.506Z,36.00
2023-05-15T00:50:58.930Z,38.97
2023-05-15T00:53:28.258Z,38.00
2023-05-15T00:55:57.839Z,36.92
2023-05-15T00:58:26.729Z,34.47
2023-05-15T01:00:53.523Z,36.05
2023-05-15T01:03:20.705Z,35.53
2023-05-15T01:05:47.380Z,34.95
2023-05-15T01:08:45.804Z,37.08
2023-05-15T01:11:14.335Z,35.75
2023-05-15T01:13:41.377Z,35.65
2023-05-15T01:16:09.546Z,36.72
2023-05-15T01:18:36.981Z,36.72
2023-05-15T01:21:31.995Z,37.53
2023-05-15T01:24:16.327Z,38.72
2023-05-15T01:27:14.287Z,39.28
2023-05-15T01:29:52.825Z,39.53
2023-05-15T01:32:23.877Z,39.97
2023-05-15T01:35:02.517Z,39.65
2023-05-15T01:37:31.892Z,37.63
2023-05-15T01:40:02.272Z,38.83
2023-05-15T01:42:32.864Z,39.83
2023-05-15T01:45:04.975Z,39.20
2023-05-15T01:47:41.816Z,42.40
2023-05-15T01:50:11.198Z,40.03
2023-05-15T01:52:42.810Z,40.75
2023-05-15T01:55:10.124Z,40.55
2023-05-15T01:57:38.509Z,40.13
2023-05-15T02:00:06.765Z,39.63
2023-05-15T02:02:42.104Z,40.05
2023-05-15T02:05:09.744Z,38.95
2023-05-15T02:07:37.100Z,40.90
2023-05-15T02:10:04.534Z,39.40
2023-05-15T02:12:32.110Z,39.15
2023-05-15T02:14:59.646Z,41.65
2023-05-15T02:17:28.522Z,43.72
2023-05-15T02:19:55.629Z,42.70
2023-05-15T02:22:22.276Z,43.60
2023-05-15T02:24:49.301Z,45.20
2023-05-15T02:27:27.707Z,43.60
2023-05-15T02:30:26.512Z,45.08
2023-05-15T02:33:04.663Z,43.17
2023-05-15T02:35:34.845Z,45.17
2023-05-15T02:38:06.352Z,44.03
2023-05-15T02:40:35.727Z,43.67
2023-05-15T02:43:02.810Z,44.75
2023-05-15T02:45:30.915Z,43.53
2023-05-15T02:47:58.557Z,41.15
2023-05-15T02:50:26.348Z,39.10
2023-05-15T02:53:04.941Z,39.08
2023-05-15T02:55:31.793Z,37.80
2023-05-15T02:57:59.075Z,39.00
2023-05-15T03:00:25.954Z,40.17
2023-05-15T03:02:53.213Z,38.30
2023-05-15T03:05:20.166Z,40.20
2023-05-15T03:07:46.959Z,42.63
2023-05-15T03:10:13.841Z,40.47
2023-05-15T03:12:40.605Z,42.22
2023-05-15T03:15:07.534Z,43.15
2023-05-15T03:17:34.346Z,40.58
2023-05-15T03:20:01.137Z,41.92
2023-05-15T03:22:27.808Z,39.50
2023-05-15T03:24:54.460Z,43.45
2023-05-15T03:27:21.504Z,42.85
2023-05-15T03:29:50.754Z,45.58
2023-05-15T03:32:17.788Z,46.50
2023-05-15T03:34:45.080Z,45.53
2023-05-15T03:37:11.756Z,45.05
2023-05-15T03:39:38.495Z,44.85
2023-05-15T03:42:05.452Z,44.83
2023-05-15T03:44:32.311Z,41.85
2023-05-15T03:46:58.995Z,44.33
2023-05-15T03:49:25.786Z,41.67
2023-05-15T03:51:52.561Z,41.67
2023-05-15T03:54:19.307Z,43.42
2023-05-15T03:56:46.191Z,43.00
2023-05-15T03:59:12.799Z,42.65
2023-05-15T04:01:51.039Z,45.60
2023-05-15T04:04:26.124Z,43.53
2023-05-15T04:06:52.733Z,46.10
2023-05-15T04:09:19.360Z,45.80
2023-05-15T04:11:46.598Z,47.92
2023-05-15T04:14:13.722Z,47.80
2023-05-15T04:16:40.698Z,47.72
2023-05-15T04:19:07.383Z,47.95
2023-05-15T04:21:34.582Z,47.78
2023-05-15T04:24:01.298Z,47.00
2023-05-15T04:26:28.045Z,47.25
2023-05-15T04:31:29.652Z,47.97
2023-05-15T04:33:56.305Z,46.17
2023-05-15T04:36:23.036Z,45.58
2023-05-15T04:38:49.668Z,46.83
2023-05-15T04:41:16.256Z,45.95
2023-05-15T04:43:42.949Z,47.05
2023-05-15T04:46:09.759Z,43.45
2023-05-15T04:48:36.492Z,43.42
2023-05-15T04:51:03.104Z,44.65
2023-05-15T04:53:30.247Z,44.47
2023-05-15T04:55:56.997Z,43.78
2023-05-15T04:58:23.928Z,43.55
2023-05-15T05:00:50.604Z,43.65
2023-05-15T05:03:17.466Z,41.53
2023-05-15T05:05:44.382Z,38.80
2023-05-15T05:08:11.224Z,36.80
2023-05-15T05:10:37.849Z,32.97
2023-05-15T05:13:04.643Z,31.15
2023-05-15T05:15:31.285Z,28.15
2023-05-15T05:17:58.329Z,26.63
2023-05-15T05:20:24.989Z,26.50
2023-05-15T05:22:51.840Z,30.15
2023-05-15T05:25:18.653Z,30.67
2023-05-15T05:27:45.280Z,32.72
2023-05-15T05:30:12.422Z,33.35
2023-05-15T05:32:39.102Z,32.92
2023-05-15T05:35:06.042Z,34.05
2023-05-15T05:37:32.733Z,35.60
2023-05-15T05:39:59.330Z,34.70
2023-05-15T05:42:26.805Z,35.92
2023-05-15T05:44:53.444Z,35.08
2023-05-15T05:47:20.194Z,34.30
2023-05-15T05:49:48.060Z,32.67
2023-05-15T05:52:16.005Z,34.45
2023-05-15T05:54:42.929Z,32.75
2023-05-15T05:57:09.857Z,31.02
2023-05-15T05:59:37.376Z,33.58
2023-05-15T06:02:04.748Z,32.72
2023-05-15T06:04:33.356Z,36.25
2023-05-15T06:07:00.146Z,35.00
2023-05-15T06:09:27.106Z,34.50
2023-05-15T06:11:53.846Z,33.70
2023-05-15T06:14:21.291Z,34.58
2023-05-15T06:16:48.130Z,35.05
2023-05-15T06:19:14.931Z,35.65
2023-05-15T06:21:41.613Z,36.70
2023-05-15T06:24:08.418Z,36.25
2023-05-15T06:26:35.225Z,36.65
2023-05-15T06:29:01.853Z,36.35
2023-05-15T06:31:28.469Z,34.78
2023-05-15T06:33:55.260Z,34.92
2023-05-15T06:36:22.432Z,35.67
2023-05-15T06:38:49.064Z,36.00
2023-05-15T06:41:15.858Z,37.80
2023-05-15T06:43:42.485Z,36.15
2023-05-15T06:46:09.132Z,37.03
2023-05-15T06:48:36.385Z,38.88
2023-05-15T06:51:03.318Z,38.15
2023-05-15T06:53:30.475Z,39.10
2023-05-15T06:55:57.444Z,39.92
2023-05-15T06:58:24.509Z,37.42
2023-05-15T07:00:52.050Z,38.60
2023-05-15T07:03:19.737Z,38.08
2023-05-15T07:05:46.612Z,37.15
2023-05-15T07:08:13.297Z,36.65
2023-05-15T07:10:39.942Z,38.35
2023-05-15T07:13:06.559Z,39.88
2023-05-15T07:15:33.415Z,40.45
2023-05-15T07:18:00.230Z,39.47
2023-05-15T07:20:30.310Z,38.60
2023-05-15T07:22:59.316Z,37.95
2023-05-15T07:25:28.736Z,37.97
2023-05-15T07:27:55.621Z,38.17
2023-05-15T07:30:23.140Z,38.25
2023-05-15T07:32:50.173Z,37.92
2023-05-15T07:35:17.083Z,37.85
2023-05-15T07:37:43.905Z,39.00
2023-05-15T07:40:10.974Z,37.17
2023-05-15T07:42:39.512Z,37.95
2023-05-15T07:45:07.311Z,36.85
2023-05-15T07:47:35.562Z,36.15
2023-05-15T07:50:02.671Z,36.55
2023-05-15T07:52:29.345Z,37.78
2023-05-15T07:54:56.037Z,37.25
2023-05-15T07:57:23.058Z,36.38
2023-05-15T07:59:49.744Z,37.80
2023-05-15T08:02:16.418Z,37.90
2023-05-15T08:04:43.266Z,38.17
2023-05-15T08:07:10.058Z,39.05
2023-05-15T08:09:36.885Z,37.17
2023-05-15T08:12:17.642Z,38.00
2023-05-15T08:14:44.335Z,37.55
2023-05-15T08:17:11.483Z,38.20
2023-05-15T08:19:38.325Z,39.13
2023-05-15T08:22:05.139Z,38.95
2023-05-15T08:24:31.755Z,37.28
2023-05-15T08:27:01.183Z,38.17
2023-05-15T08:29:27.818Z,37.78
2023-05-15T08:31:54.475Z,37.95
2023-05-15T08:34:21.111Z,37.90
2023-05-15T08:36:47.759Z,38.72
2023-05-15T08:39:14.402Z,39.10
2023-05-15T08:42:08.022Z,39.75
2023-05-15T08:44:34.920Z,39.13
2023-05-15T08:47:01.983Z,40.53
2023-05-15T08:49:44.240Z,40.38
2023-05-15T08:52:11.181Z,40.60
2023-05-15T08:54:40.339Z,42.35
2023-05-15T08:57:07.973Z,40.25
2023-05-15T08:59:34.828Z,39.95
2023-05-15T09:02:02.237Z,39.60
2023-05-15T09:04:28.992Z,40.88
2023-05-15T09:06:56.790Z,39.83
2023-05-15T09:09:24.426Z,40.08
2023-05-15T09:11:51.772Z,41.72
2023-05-15T09:14:18.782Z,41.45
2023-05-15T09:16:49.338Z,44.65
2023-05-15T09:19:18.530Z,42.40
2023-05-15T09:21:45.259Z,42.85
2023-05-15T09:24:26.332Z,42.17
2023-05-15T09:27:08.950Z,43.10
2023-05-15T09:29:37.875Z,42.88
2023-05-15T09:32:05.339Z,43.75
2023-05-15T09:34:34.256Z,43.30
2023-05-15T09:37:02.753Z,46.20
2023-05-15T09:39:29.565Z,44.75
2023-05-15T09:42:13.530Z,46.35
2023-05-15T09:44:44.186Z,46.08
2023-05-15T09:47:16.783Z,43.80
2023-05-15T09:49:47.210Z,44.40
2023-05-15T09:52:16.183Z,43.45
2023-05-15T09:54:48.190Z,47.13
2023-05-15T09:57:21.216Z,47.17
2023-05-15T09:59:48.872Z,47.60
2023-05-15T10:02:32.197Z,49.50
2023-05-15T10:04:59.329Z,46.25
2023-05-15T10:07:33.938Z,45.97
2023-05-15T10:10:02.491Z,45.72
2023-05-15T10:12:31.808Z,52.70
2023-05-15T10:15:00.641Z,53.22
2023-05-15T10:17:34.400Z,53.72
2023-05-15T10:20:02.110Z,51.28
2023-05-15T10:22:30.935Z,52.10
2023-05-15T10:25:03.387Z,52.22
2023-05-15T10:27:31.014Z,52.13
2023-05-15T10:29:58.501Z,51.15
2023-05-15T10:32:26.503Z,50.25
2023-05-15T10:34:54.912Z,49.80
2023-05-15T10:37:22.708Z,53.58
2023-05-15T10:39:50.854Z,55.25
2023-05-15T10:42:18.922Z,53.20
2023-05-15T10:44:45.709Z,55.70
2023-05-15T10:47:12.566Z,56.78
2023-05-15T10:49:39.406Z,57.47
2023-05-15T10:52:06.497Z,61.00
2023-05-15T10:54:34.178Z,57.63
2023-05-15T10:57:00.904Z,60.33
2023-05-15T10:59:32.388Z,62.17
2023-05-15T11:02:19.200Z,61.63
2023-05-15T11:04:46.161Z,61.50
2023-05-15T11:07:15.060Z,59.60
2023-05-15T11:09:42.158Z,54.40
2023-05-15T11:12:10.208Z,56.05
2023-05-15T11:15:03.817Z,55.40
2023-05-15T11:17:33.240Z,53.88
2023-05-15T11:20:00.249Z,43.85
2023-05-15T11:22:32.649Z,34.08
2023-05-15T11:25:09.157Z,37.30
2023-05-15T11:27:40.876Z,36.85
2023-05-15T11:30:13.481Z,37.78
2023-05-15T11:32:51.166Z,47.15
2023-05-15T11:35:23.820Z,44.00
2023-05-15T11:37:52.068Z,48.80
2023-05-15T11:40:23.119Z,39.33
2023-05-15T11:43:01.508Z,37.20
2023-05-15T11:45:30.802Z,36.58
2023-05-15T11:47:59.915Z,31.52
2023-05-15T11:50:27.910Z,30.48
2023-05-15T11:52:55.792Z,29.40
2023-05-15T11:55:23.049Z,27.70
2023-05-15T11:57:49.948Z,26.60
2023-05-15T12:00:16.931Z,28.50
2023-05-15T12:02:43.753Z,29.42
2023-05-15T12:05:10.929Z,28.80
2023-05-15T12:07:46.787Z,29.98
2023-05-15T12:10:13.957Z,30.98
2023-05-15T12:12:46.001Z,29.90
2023-05-15T12:15:14.249Z,29.60
2023-05-15T12:17:41.631Z,32.83
2023-05-15T12:20:16.142Z,28.55
2023-05-15T12:22:42.762Z,31.60
2023-05-15T12:25:11.487Z,27.73
2023-05-15T12:27:42.321Z,27.63
2023-05-15T12:30:11.082Z,31.75
2023-05-15T12:32:38.791Z,31.95
2023-05-15T12:35:06.057Z,32.75
2023-05-15T12:37:34.828Z,31.35
2023-05-15T12:40:10.333Z,35.67
2023-05-15T12:42:42.013Z,32.83
2023-05-15T12:45:14.058Z,29.52
2023-05-15T12:47:41.772Z,29.75
2023-05-15T12:50:14.868Z,29.15
2023-05-15T12:52:46.813Z,29.98
2023-05-15T12:55:17.726Z,28.45
2023-05-15T12:57:44.616Z,26.00
2023-05-15T13:00:12.592Z,25.90
2023-05-15T13:02:39.496Z,25.33
2023-05-15T13:05:07.399Z,31.08
2023-05-15T13:07:34.043Z,26.83
2023-05-15T13:10:08.037Z,28.20
2023-05-15T13:12:46.340Z,23.73
2023-05-15T13:15:30.791Z,26.52
2023-05-15T13:18:00.697Z,27.20
2023-05-15T13:20:29.216Z,25.88
2023-05-15T13:22:55.863Z,23.90
2023-05-15T13:25:22.518Z,25.17
2023-05-15T13:27:49.890Z,24.65
2023-05-15T13:30:17.519Z,22.27
2023-05-15T13:32:44.382Z,25.75
2023-05-15T13:35:11.534Z,27.88
2023-05-15T13:37:38.582Z,30.05
2023-05-15T13:40:09.685Z,29.17
2023-05-15T13:42:37.785Z,32.38
2023-05-15T13:45:09.632Z,34.03
2023-05-15T13:47:36.986Z,27.02
2023-05-15T13:50:04.007Z,29.38
2023-05-15T13:52:31.264Z,29.75
2023-05-15T13:54:57.889Z,29.20
2023-05-15T13:57:24.986Z,26.63
2023-05-15T13:59:51.993Z,27.80
2023-05-15T14:02:18.777Z,26.48
2023-05-15T14:04:46.965Z,27.15
2023-05-15T14:07:13.878Z,29.90
2023-05-15T14:09:40.528Z,32.47
2023-05-15T14:12:07.277Z,32.83
2023-05-15T14:14:33.951Z,31.40
2023-05-15T14:17:00.670Z,32.20
2023-05-15T14:19:27.347Z,29.15
2023-05-15T14:21:54.181Z,28.15
2023-05-15T14:24:20.900Z,30.15
2023-05-15T14:26:47.583Z,31.67
2023-05-15T14:29:14.295Z,31.73
2023-05-15T14:31:43.045Z,28.13
2023-05-15T14:34:09.768Z,28.90
2023-05-15T14:36:36.840Z,28.25
2023-05-15T14:39:04.182Z,25.42
2023-05-15T14:41:30.887Z,26.23
2023-05-15T14:43:57.567Z,25.95
2023-05-15T14:46:24.537Z,24.38
2023-05-15T14:48:51.409Z,24.77
2023-05-15T14:51:19.878Z,26.50
2023-05-15T14:53:46.790Z,26.92
2023-05-15T14:56:13.667Z,29.75
2023-05-15T14:58:40.424Z,29.00
2023-05-15T15:01:07.047Z,26.90
2023-05-15T15:03:34.342Z,26.05
2023-05-15T15:06:01.292Z,25.02
2023-05-15T15:08:28.000Z,25.20
2023-05-15T15:10:54.642Z,27.25
2023-05-15T15:13:21.326Z,30.92
2023-05-15T15:15:48.292Z,25.67
2023-05-15T15:18:15.082Z,25.80
2023-05-15T15:20:42.611Z,27.63
2023-05-15T15:23:09.705Z,26.98
2023-05-15T15:25:36.572Z,25.80
2023-05-15T15:28:03.579Z,28.40
2023-05-15T15:30:30.932Z,26.77
2023-05-15T15:32:57.789Z,28.48
2023-05-15T15:35:24.958Z,27.90
2023-05-15T15:37:52.912Z,29.40
2023-05-15T15:40:20.289Z,28.60
2023-05-15T15:42:46.923Z,29.35
2023-05-15T15:45:13.599Z,27.58
2023-05-15T15:47:40.357Z,28.75
2023-05-15T15:50:07.443Z,29.00
2023-05-15T15:52:34.085Z,28.70
2023-05-15T15:55:00.732Z,29.55
2023-05-15T15:57:29.338Z,27.42
2023-05-15T15:59:56.089Z,26.98
2023-05-15T16:02:22.897Z,30.98
2023-05-15T16:04:49.964Z,30.25
2023-05-15T16:07:16.970Z,28.00
2023-05-15T16:09:43.700Z,28.92
2023-05-15T16:12:10.330Z,28.75
2023-05-15T16:14:37.019Z,30.88
2023-05-15T16:17:04.235Z,32.50
2023-05-15T16:19:31.195Z,32.30
2023-05-15T16:21:57.847Z,31.98
2023-05-15T16:24:24.536Z,34.15
2023-05-15T16:26:51.407Z,34.38
2023-05-15T16:29:18.785Z,35.70
2023-05-15T16:31:46.751Z,34.55
2023-05-15T16:34:13.784Z,34.67
2023-05-15T16:36:40.421Z,35.10
2023-05-15T16:39:07.805Z,36.30
2023-05-15T16:41:34.458Z,35.25
2023-05-15T16:44:01.349Z,35.45
2023-05-15T16:46:28.048Z,34.20
2023-05-15T16:48:54.707Z,35.65
2023-05-15T16:51:21.390Z,35.92
2023-05-15T16:53:48.192Z,35.47
2023-05-15T16:56:14.831Z,34.13
2023-05-15T16:58:42.499Z,33.78
2023-05-15T17:01:09.443Z,35.67
2023-05-15T17:03:37.075Z,34.83
2023-05-15T17:06:04.098Z,37.10
2023-05-15T17:08:30.887Z,36.95
2023-05-15T17:10:57.563Z,35.10
2023-05-15T17:13:25.494Z,36.92
2023-05-15T17:15:53.921Z,36.60
2023-05-15T17:18:20.654Z,35.05
2023-05-15T17:20:47.351Z,35.63
2023-05-15T17:23:14.003Z,35.10
2023-05-15T17:25:40.642Z,37.45
2023-05-15T17:28:07.301Z,33.83
2023-05-15T17:30:33.957Z,38.83
2023-05-15T17:33:00.818Z,37.92
2023-05-15T17:35:29.281Z,40.58
2023-05-15T17:37:57.482Z,38.55
2023-05-15T17:40:24.125Z,40.20
2023-05-15T17:42:50.940Z,39.38
2023-05-15T17:45:17.608Z,39.60
2023-05-15T17:47:44.399Z,39.42
2023-05-15T17:50:11.440Z,37.10
2023-05-15T17:52:38.329Z,37.47
2023-05-15T17:55:05.725Z,37.78
2023-05-15T17:57:32.419Z,37.03
2023-05-15T17:59:59.113Z,38.80
2023-05-15T18:02:25.867Z,39.45
2023-05-15T18:04:52.587Z,37.75
2023-05-15T18:07:19.432Z,38.20
2023-05-15T18:09:46.062Z,44.40
2023-05-15T18:12:12.696Z,41.95
2023-05-15T18:14:40.465Z,41.05
2023-05-15T18:17:07.315Z,40.80
2023-05-15T18:19:34.013Z,39.63
2023-05-15T18:22:03.089Z,41.00
2023-05-15T18:24:29.790Z,41.72
2023-05-15T18:26:56.481Z,40.35
2023-05-15T18:29:23.436Z,37.05
2023-05-15T18:31:50.172Z,39.28
2023-05-15T18:34:16.833Z,38.67
2023-05-15T18:36:43.638Z,40.55
2023-05-15T18:39:10.297Z,42.97
2023-05-15T18:41:37.065Z,42.92
2023-05-15T18:44:04.246Z,44.03
2023-05-15T18:46:31.641Z,44.20
2023-05-15T18:48:58.984Z,42.47
2023-05-15T18:51:25.840Z,42.55
2023-05-15T18:53:52.545Z,41.38
2023-05-15T18:56:19.242Z,42.63
2023-05-15T18:58:47.268Z,45.97
2023-05-15T19:01:14.020Z,40.83
2023-05-15T19:03:40.784Z,35.80
2023-05-15T19:06:07.669Z,36.67
2023-05-15T19:08:34.350Z,38.55
2023-05-15T19:11:01.619Z,36.70
2023-05-15T19:13:32.415Z,38.55
2023-05-15T19:15:59.039Z,39.08
2023-05-15T19:18:25.669Z,40.08
2023-05-15T19:20:52.384Z,42.67
2023-05-15T19:23:20.684Z,47.40
2023-05-15T19:25:47.578Z,49.63
2023-05-15T19:28:14.800Z,58.25
2023-05-15T19:30:41.603Z,53.75
2023-05-15T19:33:08.489Z,57.67
2023-05-15T19:35:37.355Z,58.03
2023-05-15T19:38:04.518Z,51.35
2023-05-15T19:40:31.147Z,48.38
2023-05-15T19:42:58.353Z,43.95
2023-05-15T19:45:24.963Z,43.58
2023-05-15T19:47:51.720Z,38.78
2023-05-15T19:50:18.501Z,36.90
2023-05-15T19:52:45.558Z,35.20
2023-05-15T19:55:12.565Z,29.25
2023-05-15T19:57:44.652Z,28.05
2023-05-15T20:00:12.397Z,25.55
2023-05-15T20:02:41.055Z,23.08
2023-05-15T20:05:08.594Z,22.70
2023-05-15T20:07:35.717Z,23.05
2023-05-15T20:10:02.453Z,23.70
2023-05-15T20:12:29.126Z,22.08
2023-05-15T20:14:55.825Z,22.30
2023-05-15T20:17:22.885Z,21.10
2023-05-15T20:19:50.386Z,21.13
2023-05-15T20:22:17.501Z,22.65
2023-05-15T20:24:44.819Z,23.90
2023-05-15T20:27:12.106Z,25.23
2023-05-15T20:29:39.297Z,26.02
2023-05-15T20:32:06.285Z,26.50
2023-05-15T20:34:34.290Z,26.48
2023-05-15T20:37:02.551Z,28.27
2023-05-15T20:39:29.169Z,26.63
2023-05-15T20:41:56.440Z,28.58
2023-05-15T20:44:23.038Z,25.40
2023-05-15T20:46:50.092Z,25.30
2023-05-15T20:49:16.730Z,26.95
2023-05-15T20:51:44.456Z,22.95
2023-05-15T20:54:11.462Z,22.73
2023-05-15T20:56:38.341Z,25.05
2023-05-15T20:59:04.976Z,23.88
2023-05-15T21:01:31.651Z,22.73
2023-05-15T21:03:58.831Z,22.85
2023-05-15T21:06:25.867Z,23.27
2023-05-15T21:08:52.500Z,21.40
2023-05-15T21:11:19.173Z,21.80
2023-05-15T21:13:45.941Z,23.52
2023-05-15T21:16:12.542Z,23.33
2023-05-15T21:18:39.316Z,23.48
2023-05-15T21:21:07.111Z,22.85
2023-05-15T21:23:36.394Z,24.25
2023-05-15T21:26:03.579Z,25.00
2023-05-15T21:28:30.714Z,25.42
2023-05-15T21:30:57.422Z,27.58
2023-05-15T21:33:24.096Z,27.55
2023-05-15T21:35:51.397Z,28.88
2023-05-15T21:38:18.395Z,29.45
2023-05-15T21:40:45.089Z,29.58
2023-05-15T21:43:11.688Z,31.00
2023-05-15T21:45:38.389Z,28.75
2023-05-15T21:48:05.185Z,30.30
2023-05-15T21:50:32.517Z,31.55
2023-05-15T21:52:59.176Z,30.48
2023-05-15T21:55:25.880Z,32.78
2023-05-15T21:57:52.509Z,31.73
2023-05-15T22:00:19.340Z,31.63
2023-05-15T22:02:46.384Z,33.75
2023-05-15T22:05:13.533Z,31.15
2023-05-15T22:07:40.379Z,33.33
2023-05-15T22:10:08.049Z,34.35
2023-05-15T22:12:34.763Z,35.58
2023-05-15T22:15:01.375Z,33.45
2023-05-15T22:17:28.802Z,35.35
2023-05-15T22:20:07.363Z,36.55
2023-05-15T22:22:35.392Z,35.55
2023-05-15T22:25:02.225Z,36.78
2023-05-15T22:27:29.212Z,37.22
2023-05-15T22:29:56.344Z,36.90
2023-05-15T22:32:23.314Z,36.50
2023-05-15T22:34:49.970Z,36.20
2023-05-15T22:37:16.620Z,35.83
2023-05-15T22:39:43.654Z,39.33
2023-05-15T22:42:10.906Z,36.47
2023-05-15T22:44:37.526Z,34.65
2023-05-15T22:47:04.858Z,35.88
2023-05-15T22:49:31.561Z,36.25
2023-05-15T22:51:58.456Z,34.55
2023-05-15T22:54:25.196Z,34.42
2023-05-15T22:56:52.383Z,31.98
2023-05-15T22:59:19.512Z,35.15
2023-05-15T23:01:47.209Z,35.92
2023-05-15T23:04:14.398Z,35.63
2023-05-15T23:06:41.176Z,37.05
2023-05-15T23:09:08.591Z,37.28
2023-05-15T23:11:35.811Z,36.50
2023-05-15T23:14:02.831Z,35.47
2023-05-15T23:16:29.586Z,34.35
2023-05-15T23:18:57.704Z,35.25
2023-05-15T23:21:24.517Z,35.58
2023-05-15T23:23:51.512Z,37.80
2023-05-15T23:26:18.275Z,36.72
2023-05-15T23:28:44.932Z,36.15
2023-05-15T23:31:13.725Z,35.25
2023-05-15T23:33:40.619Z,35.65
2023-05-15T23:36:07.351Z,37.83
2023-05-15T23:38:34.028Z,37.78
2023-05-15T23:41:00.726Z,38.30
2023-05-15T23:43:28.278Z,40.30
2023-05-15T23:45:54.970Z,38.35
2023-05-15T23:48:21.627Z,38.53
2023-05-15T23:50:49.279Z,39.00
2023-05-15T23:53:15.923Z,38.42
2023-05-15T23:55:42.587Z,40.53
2023-05-15T23:58:09.299Z,38.85
